Time;durP1;ratioP1;P1;durP2;ratioP2;P2;SDS_P1;SDS_P2;PMS_P1;PMS_P2;Temp;Humidity;BMP_temperature;BMP_pressure;BME280_temperature;BME280_humidity;BME280_pressure;Samples;Min_cycle;Max_cycle;Signal;HPM_P1;HPM_P2
2022/12/29 00:01:01;;;;;;;20.38;16.13;;;;;;;19.86;57.07;101829.44;5034251;28;20045;-60
2022/12/29 00:03:29;;;;;;;20.30;17.45;;;;;;;19.86;57.38;101827.59;5021801;28;20041;-59
2022/12/29 00:05:57;;;;;;;21.58;17.70;;;;;;;19.86;57.36;101826.75;5014184;28;20050;-60
2022/12/29 00:08:39;;;;;;;21.92;17.15;;;;;;;19.87;57.41;101828.47;5014366;28;20050;-60
2022/12/29 00:11:15;;;;;;;21.08;17.08;;;;;;;19.86;56.70;101818.69;5014882;28;20052;-60
2022/12/29 00:16:31;;;;;;;23.52;18.25;;;;;;;19.86;56.83;101818.69;5014461;28;20056;-60
2022/12/29 00:19:00;;;;;;;20.58;16.63;;;;;;;19.86;56.58;101814.16;5022227;28;20057;-60
2022/12/29 00:35:29;;;;;;;22.55;17.20;;;;;;;19.86;57.99;101803.41;5033689;28;20052;-62
2022/12/29 00:46:21;;;;;;;21.42;16.23;;;;;;;19.83;59.56;101800.94;5033762;28;20045;-62
2022/12/29 00:51:34;;;;;;;17.65;14.30;;;;;;;19.82;60.03;101803.75;5033712;28;20053;-62
2022/12/29 00:54:02;;;;;;;16.88;13.93;;;;;;;19.80;59.85;101801.16;5032565;28;20415;-62
2022/12/29 00:56:29;;;;;;;16.98;14.45;;;;;;;19.80;60.02;101789.56;5033688;28;20038;-62
2022/12/29 00:59:09;;;;;;;19.27;14.80;;;;;;;19.79;60.05;101790.53;5033610;28;20049;-62
2022/12/29 01:01:37;;;;;;;18.63;14.73;;;;;;;19.78;60.02;101803.13;5032490;28;20060;-62
2022/12/29 01:04:06;;;;;;;19.83;14.82;;;;;;;19.78;60.09;101797.75;5033565;28;20049;-62
2022/12/29 01:06:35;;;;;;;17.60;14.20;;;;;;;19.76;60.11;101795.16;5033485;28;20041;-62
2022/12/29 01:11:49;;;;;;;20.58;14.77;;;;;;;19.76;60.14;101800.53;5034202;28;20053;-62
2022/12/29 01:14:18;;;;;;;18.58;14.45;;;;;;;19.76;59.77;101805.91;5032644;28;20045;-62
2022/12/29 01:16:46;;;;;;;17.25;13.88;;;;;;;19.76;59.74;101815.78;5033470;28;20472;-62
2022/12/29 01:19:14;;;;;;;15.40;13.32;;;;;;;19.76;59.72;101808.59;5033601;28;20056;-62
2022/12/29 01:21:45;;;;;;;17.92;14.77;;;;;;;19.77;59.59;101801.41;5032597;28;20408;-61
2022/12/29 01:24:13;;;;;;;16.17;13.68;;;;;;;19.77;59.42;101793.34;5033353;28;20060;-61
2022/12/29 01:26:40;;;;;;;16.70;14.45;;;;;;;19.76;59.35;101800.53;5032558;28;20046;-61
2022/12/29 01:29:08;;;;;;;17.23;14.10;;;;;;;19.77;59.28;101806.78;5033475;28;20042;-62
2022/12/29 01:31:36;;;;;;;16.17;13.68;;;;;;;19.76;59.22;101797.84;5033084;28;20041;-61
2022/12/29 01:34:04;;;;;;;16.83;14.13;;;;;;;19.77;58.93;101806.78;5033255;28;20045;-62
2022/12/29 01:36:33;;;;;;;17.45;14.35;;;;;;;19.76;58.56;101797.84;5033099;28;20052;-62
2022/12/29 01:39:00;;;;;;;15.40;12.88;;;;;;;19.75;58.42;101789.91;5034734;28;20053;-62
2022/12/29 01:41:27;;;;;;;21.63;13.30;;;;;;;19.75;58.72;101798.81;5037297;28;20046;-62
2022/12/29 01:43:58;;;;;;;17.10;14.48;;;;;;;19.75;58.37;101798.81;5037139;28;20045;-62
2022/12/29 01:46:45;;;;;;;16.02;14.27;;;;;;;19.75;58.54;101796.13;5036145;28;20046;-62
2022/12/29 01:49:21;;;;;;;16.30;13.90;;;;;;;19.76;58.53;101796.97;5037367;28;20046;-62
2022/12/29 01:51:55;;;;;;;16.75;13.85;;;;;;;19.75;58.42;101798.81;5037229;28;20037;-62
2022/12/29 01:54:25;;;;;;;17.77;14.02;;;;;;;19.75;58.13;101806.88;5037167;28;20050;-62
2022/12/29 01:56:57;;;;;;;17.25;14.18;;;;;;;19.75;57.99;101806.00;5036999;28;20590;-62
2022/12/29 01:59:30;;;;;;;16.20;13.68;;;;;;;19.74;58.15;101799.78;5035683;28;20076;-61
2022/12/29 02:01:58;;;;;;;16.30;14.57;;;;;;;19.74;58.04;101801.63;5036801;28;20045;-61
2022/12/29 02:04:29;;;;;;;17.17;14.23;;;;;;;19.74;57.58;101799.78;5035356;28;20053;-61
2022/12/29 02:07:03;;;;;;;19.70;14.88;;;;;;;19.74;57.67;101798.94;5036816;28;20042;-61
2022/12/29 02:09:30;;;;;;;18.02;14.60;;;;;;;19.74;57.39;101797.09;5036967;28;20050;-61
2022/12/29 02:11:59;;;;;;;17.08;13.93;;;;;;;19.73;57.57;101790.03;5035532;28;20053;-61
2022/12/29 02:14:26;;;;;;;15.38;13.65;;;;;;;19.73;57.33;101790.03;5019413;28;20049;-62
2022/12/29 02:17:11;;;;;;;17.88;14.40;;;;;;;19.73;57.27;101790.03;5035722;28;20045;-62
2022/12/29 02:19:48;;;;;;;17.92;13.77;;;;;;;19.74;57.29;101780.13;5035449;28;20064;-62
2022/12/29 02:22:26;;;;;;;18.20;13.70;;;;;;;19.73;57.15;101775.72;5036661;28;20395;-62
2022/12/29 02:24:59;;;;;;;17.05;14.65;;;;;;;19.72;57.19;101777.53;5036708;28;20411;-62
2022/12/29 02:27:27;;;;;;;16.90;14.77;;;;;;;19.72;57.05;101777.53;5035607;28;20045;-62
2022/12/29 02:30:16;;;;;;;16.15;14.02;;;;;;;19.72;57.07;101772.16;5034795;28;20057;-61
2022/12/29 02:32:47;;;;;;;16.35;13.63;;;;;;;19.71;56.78;101767.75;5036553;28;20041;-62
2022/12/29 02:35:41;;;;;;;16.05;14.23;;;;;;;19.72;57.06;101763.25;5035042;28;20062;-62
2022/12/29 02:38:29;;;;;;;15.43;13.75;;;;;;;19.73;56.99;101776.59;5036459;28;20452;-62
2022/12/29 02:41:07;;;;;;;17.20;13.75;;;;;;;19.71;56.92;101769.59;5035006;28;20060;-62
2022/12/29 02:43:45;;;;;;;17.75;14.57;;;;;;;19.71;56.78;101756.16;5035301;28;20060;-62
2022/12/29 02:46:32;;;;;;;18.17;14.48;;;;;;;19.70;57.00;101768.75;5036171;28;20049;-61
2022/12/29 02:49:12;;;;;;;16.60;13.20;;;;;;;19.72;56.89;101774.84;5035960;28;20045;-61
2022/12/29 02:51:58;;;;;;;18.27;13.95;;;;;;;19.72;56.63;101774.84;5035059;28;20060;-61
2022/12/29 02:54:41;;;;;;;16.50;13.45;;;;;;;19.72;56.79;101768.63;5035434;28;20054;-62
2022/12/29 02:57:21;;;;;;;17.85;14.32;;;;;;;19.72;56.87;101760.56;5035064;28;20049;-61
2022/12/29 02:59:55;;;;;;;18.40;14.27;;;;;;;19.70;56.84;101749.94;5034194;28;20049;-62
2022/12/29 03:02:46;;;;;;;18.48;14.32;;;;;;;19.71;56.77;101742.72;5035970;28;20049;-62
2022/12/29 03:05:49;;;;;;;18.20;15.70;;;;;;;19.71;56.51;101732.00;5034600;28;20487;-61
2022/12/29 03:08:41;;;;;;;17.77;14.40;;;;;;;19.70;56.81;101736.50;5034085;28;20052;-61
2022/12/29 03:17:09;;;;;;;18.63;14.63;;;;;;;19.70;56.76;101741.88;5034335;28;20602;-62
2022/12/29 03:19:46;;;;;;;17.05;14.18;;;;;;;19.70;56.50;101732.97;5034274;28;20057;-62
2022/12/29 03:22:26;;;;;;;17.17;14.52;;;;;;;19.71;56.75;101740.03;5033988;28;20045;-62
2022/12/29 03:25:32;;;;;;;17.00;13.77;;;;;;;19.70;56.77;101725.75;5035336;28;20061;-62
2022/12/29 03:28:09;;;;;;;16.83;14.30;;;;;;;19.70;56.57;101728.44;5035364;28;20491;-62
2022/12/29 03:30:45;;;;;;;15.75;13.77;;;;;;;19.70;56.75;101722.22;5034392;28;20045;-61
2022/12/29 03:33:18;;;;;;;17.75;14.68;;;;;;;19.68;56.55;101714.25;5033708;28;20503;-62
2022/12/29 03:35:48;;;;;;;;;;;;;;;19.69;56.45;101717.81;5034539;28;20052;-61
2022/12/29 03:38:22;;;;;;;15.48;13.77;;;;;;;19.69;56.54;101716.00;5034126;28;19925;-61
2022/12/29 03:40:55;;;;;;;15.90;13.25;;;;;;;19.70;56.45;101717.69;5034205;28;20053;-61
2022/12/29 03:43:25;;;;;;;17.17;14.50;;;;;;;19.69;56.56;101707.09;5033697;28;20396;-61
2022/12/29 03:45:54;;;;;;;17.70;14.95;;;;;;;19.69;56.37;101702.56;5033914;28;20060;-62
2022/12/29 03:48:22;;;;;;;16.95;14.23;;;;;;;19.70;56.47;101698.03;5033387;28;20400;-62
2022/12/29 03:50:51;;;;;;;17.33;13.75;;;;;;;19.68;56.45;101708.88;5033657;28;20049;-62
2022/12/29 03:53:19;;;;;;;15.80;13.55;;;;;;;19.68;56.40;101708.03;5033777;28;20053;-62
2022/12/29 03:55:46;;;;;;;17.17;14.27;;;;;;;19.68;56.40;101708.88;5033372;28;20049;-62
2022/12/29 03:58:14;;;;;;;18.10;14.07;;;;;;;19.67;56.51;101707.16;5033552;28;20054;-62
2022/12/29 04:00:58;;;;;;;20.42;15.60;;;;;;;19.68;56.46;101711.56;5033206;28;20056;-63
2022/12/29 04:03:26;;;;;;;18.17;14.88;;;;;;;19.68;56.38;101718.78;5033329;28;20064;-62
2022/12/29 04:05:53;;;;;;;17.67;14.98;;;;;;;19.67;56.29;101723.28;5033745;28;20057;-62
2022/12/29 04:08:21;;;;;;;19.13;14.30;;;;;;;19.68;56.35;101726.84;5033067;28;20488;-61
2022/12/29 04:10:49;;;;;;;20.17;15.27;;;;;;;19.67;56.45;101728.66;5033316;28;20052;-62
2022/12/29 04:13:20;;;;;;;18.80;14.03;;;;;;;19.67;56.44;101731.34;5033363;28;20408;-61
2022/12/29 04:15:48;;;;;;;16.92;13.75;;;;;;;19.68;56.37;101732.19;5033793;28;20049;-62
2022/12/29 04:18:16;;;;;;;17.77;14.05;;;;;;;19.70;56.34;101735.66;5034675;28;20046;-61
2022/12/29 04:21:00;;;;;;;18.38;14.20;;;;;;;19.68;56.35;101726.84;5033489;28;20057;-61
2022/12/29 04:23:30;;;;;;;18.67;14.13;;;;;;;19.67;56.28;101728.66;5032741;28;20072;-61
2022/12/29 04:25:58;;;;;;;19.27;14.90;;;;;;;19.68;56.39;101719.63;5032672;28;20059;-62
2022/12/29 04:28:28;;;;;;;21.00;16.27;;;;;;;19.69;56.20;101728.56;5032918;28;20042;-63
2022/12/29 04:31:24;;;;;;;17.45;13.88;;;;;;;19.68;56.37;101713.41;5033217;28;20057;-61
2022/12/29 04:33:52;;;;;;;16.73;14.45;;;;;;;19.68;56.11;101738.44;5032637;28;20060;-62
2022/12/29 04:36:19;;;;;;;17.52;14.65;;;;;;;19.68;56.18;101716.09;5034094;28;20045;-61
2022/12/29 04:38:53;;;;;;;19.73;14.60;;;;;;;19.68;56.16;101735.75;5033018;28;20073;-62
2022/12/29 04:41:21;;;;;;;18.50;14.50;;;;;;;19.68;56.24;101757.22;5033154;28;20056;-62
2022/12/29 04:43:49;;;;;;;17.05;14.25;;;;;;;19.69;56.06;101720.50;5032979;28;20480;-62
2022/12/29 04:46:34;;;;;;;17.88;14.75;;;;;;;19.67;56.07;101720.59;5040914;28;20049;-62
2022/12/29 04:49:08;;;;;;;18.15;13.93;;;;;;;19.69;56.05;101720.50;5032954;28;20045;-62
2022/12/29 04:51:42;;;;;;;19.98;15.80;;;;;;;19.68;56.12;101727.69;5040504;28;20054;-61
2022/12/29 04:54:12;;;;;;;19.58;14.60;;;;;;;19.69;56.34;101733.94;5032788;28;20472;-61
2022/12/29 04:56:40;;;;;;;15.88;14.18;;;;;;;19.67;56.16;101736.72;5032784;28;20392;-62
2022/12/29 04:59:07;;;;;;;17.65;13.85;;;;;;;19.68;56.23;101727.69;5032199;28;20041;-62
2022/12/29 05:01:35;;;;;;;17.17;14.00;;;;;;;19.68;56.13;101732.19;5032606;28;20061;-62
2022/12/29 05:04:02;;;;;;;19.48;14.88;;;;;;;19.67;56.37;101739.41;5033611;28;20369;-61
2022/12/29 05:06:30;;;;;;;17.05;14.32;;;;;;;19.67;56.33;101747.47;5032616;28;20060;-62
2022/12/29 05:08:57;;;;;;;17.30;13.95;;;;;;;19.68;56.39;101746.50;5033416;28;20046;-62
2022/12/29 05:11:25;;;;;;;17.75;15.13;;;;;;;19.67;56.26;101738.56;5032122;28;20064;-62
2022/12/29 05:13:53;;;;;;;19.40;14.50;;;;;;;19.68;56.24;101734.88;5031507;28;20053;-62
2022/12/29 05:16:21;;;;;;;18.48;14.43;;;;;;;19.68;56.36;101738.44;5032530;28;20049;-62
2022/12/29 05:18:48;;;;;;;15.95;14.25;;;;;;;19.67;56.35;101738.56;5033448;28;20052;-62
2022/12/29 05:21:16;;;;;;;18.08;14.65;;;;;;;19.66;56.21;101737.69;5031663;28;20064;-61
2022/12/29 05:23:44;;;;;;;16.25;14.05;;;;;;;19.67;56.40;101739.41;5032053;28;20049;-62
2022/12/29 05:26:12;;;;;;;19.88;14.85;;;;;;;19.67;56.35;101739.41;5032411;28;20064;-62
2022/12/29 05:28:50;;;;;;;19.15;15.13;;;;;;;19.67;56.35;101746.63;5032403;28;20045;-62
2022/12/29 05:31:19;;;;;;;16.88;13.88;;;;;;;19.66;56.30;101748.44;5032387;28;20057;-62
2022/12/29 05:33:47;;;;;;;16.60;14.32;;;;;;;19.67;56.25;101735.88;5032066;28;20514;-62
2022/12/29 05:36:15;;;;;;;17.25;14.48;;;;;;;19.66;56.33;101735.00;5031736;28;20046;-62
2022/12/29 05:38:47;;;;;;;16.25;13.63;;;;;;;19.65;56.21;101733.31;5031727;28;20065;-62
2022/12/29 05:41:16;;;;;;;18.73;13.80;;;;;;;19.66;56.27;101744.91;5032020;28;20491;-61
2022/12/29 05:44:00;;;;;;;18.08;14.80;;;;;;;19.65;56.03;101737.81;5039949;28;20053;-62
2022/12/29 05:46:50;;;;;;;19.35;15.13;;;;;;;19.65;56.14;101743.19;5033641;28;20049;-62
2022/12/29 05:49:42;;;;;;;15.73;13.57;;;;;;;19.66;55.96;101737.69;5032172;28;20046;-63
2022/12/29 05:52:28;;;;;;;19.00;15.02;;;;;;;19.66;56.07;101744.91;5039761;28;20479;-63
2022/12/29 05:54:55;;;;;;;20.63;14.73;;;;;;;19.67;55.97;101752.84;5031736;28;20049;-63
2022/12/29 05:57:25;;;;;;;17.27;13.90;;;;;;;19.68;55.96;101751.00;5015662;28;20530;-63
2022/12/29 06:00:08;;;;;;;19.80;14.65;;;;;;;19.67;55.98;101744.78;5031845;28;20057;-63
2022/12/29 06:02:42;;;;;;;15.65;13.63;;;;;;;19.68;55.96;101754.53;5031416;28;20053;-61
2022/12/29 06:05:10;;;;;;;18.27;13.77;;;;;;;19.68;56.16;101746.50;5031844;28;20050;-61
2022/12/29 06:07:39;;;;;;;19.98;14.82;;;;;;;19.69;56.06;101744.69;5031086;28;20129;-63
2022/12/29 06:10:07;;;;;;;16.10;13.27;;;;;;;19.67;56.08;101734.03;5031176;28;20053;-49
2022/12/29 06:12:42;;;;;;;16.67;14.27;;;;;;;19.67;55.92;101747.47;5031726;28;20064;-47
2022/12/29 06:15:10;;;;;;;17.75;14.70;;;;;;;19.67;55.96;101744.78;5031956;28;20056;-49
2022/12/29 06:17:40;;;;;;;17.33;13.45;;;;;;;19.67;56.03;101763.59;5031386;28;20522;-48
2022/12/29 06:20:09;;;;;;;20.30;13.95;;;;;;;19.68;56.18;101756.38;5031239;28;20411;-51
2022/12/29 06:22:38;;;;;;;14.57;12.82;;;;;;;19.66;56.17;101759.19;5031465;28;20057;-47
2022/12/29 06:25:06;;;;;;;18.65;14.52;;;;;;;19.68;56.04;101769.81;5033689;28;20064;-48
2022/12/29 06:27:34;;;;;;;21.42;15.60;;;;;;;19.67;56.17;101760.03;5036043;28;20064;-47
2022/12/29 06:30:02;;;;;;;25.38;14.57;;;;;;;19.66;56.16;101767.25;5035122;28;20045;-48
2022/12/29 06:32:30;;;;;;;17.48;14.80;;;;;;;19.66;56.00;101763.72;5035148;28;20065;-47
2022/12/29 06:35:03;;;;;;;16.90;13.88;;;;;;;19.67;56.05;101766.28;5035166;28;20046;-48
2022/12/29 06:37:31;;;;;;;20.05;14.27;;;;;;;19.66;56.10;101769.94;5035333;28;20060;-48
2022/12/29 06:39:58;;;;;;;19.65;15.10;;;;;;;19.67;56.16;101770.78;5034527;28;20041;-49
2022/12/29 06:42:33;;;;;;;18.70;14.35;;;;;;;19.67;56.21;101765.41;5035302;28;20407;-47
2022/12/29 06:45:27;;;;;;;17.67;13.82;;;;;;;19.67;56.07;101765.41;5030356;28;20129;-47
2022/12/29 06:47:54;;;;;;;16.27;13.48;;;;;;;19.67;56.06;101776.16;5036216;28;20045;-48
2022/12/29 06:50:21;;;;;;;16.48;13.23;;;;;;;19.67;56.07;101776.16;5035995;28;20056;-50
2022/12/29 06:52:48;;;;;;;18.25;14.88;;;;;;;19.65;55.99;101770.91;5036087;28;20050;-48
2022/12/29 06:55:16;;;;;;;18.48;14.43;;;;;;;19.66;56.01;101772.63;5035993;28;20049;-51
2022/12/29 06:57:43;;;;;;;16.92;13.27;;;;;;;19.66;55.95;101779.81;5036238;28;20060;-50
2022/12/29 07:00:11;;;;;;;17.58;13.43;;;;;;;19.66;56.07;101779.81;5035956;28;20044;-47
2022/12/29 07:02:38;;;;;;;18.63;14.20;;;;;;;19.66;56.15;101769.94;5036182;28;20053;-47
2022/12/29 07:05:07;;;;;;;15.80;13.50;;;;;;;19.65;56.15;101773.59;5035787;28;20053;-48
2022/12/29 07:07:34;;;;;;;19.38;14.40;;;;;;;19.65;56.04;101772.75;5035889;28;20064;-49
2022/12/29 07:10:02;;;;;;;17.67;13.30;;;;;;;19.66;56.11;101769.09;5035767;28;20491;-48
2022/12/29 07:12:29;;;;;;;17.80;13.73;;;;;;;19.65;55.99;101762.00;5035687;28;20045;-48
2022/12/29 07:14:57;;;;;;;18.38;14.55;;;;;;;19.64;55.95;101753.06;5035733;28;20049;-49
2022/12/29 07:17:24;;;;;;;17.52;13.52;;;;;;;19.64;56.05;101749.50;5035687;28;20041;-48
2022/12/29 07:19:51;;;;;;;14.43;12.35;;;;;;;19.64;55.95;101768.31;5035468;28;20045;-50
2022/12/29 07:22:18;;;;;;;17.50;14.68;;;;;;;19.65;55.90;101770.06;5035537;28;20048;-47
2022/12/29 07:24:46;;;;;;;16.95;12.55;;;;;;;19.65;55.77;101773.59;5035466;28;20053;-49
2022/12/29 07:27:13;;;;;;;18.00;14.50;;;;;;;19.65;55.95;101781.66;5035544;28;20041;-48
2022/12/29 07:29:41;;;;;;;15.80;12.55;;;;;;;19.65;56.00;101770.91;5035406;28;20042;-46
2022/12/29 07:32:08;;;;;;;18.15;13.57;;;;;;;19.67;55.77;101773.47;5035320;28;20049;-48
2022/12/29 07:34:35;;;;;;;17.05;13.60;;;;;;;19.66;55.85;101771.78;5035020;28;20484;-47
2022/12/29 07:37:03;;;;;;;17.58;13.63;;;;;;;19.66;55.83;101769.09;5034373;28;20053;-48
2022/12/29 07:39:30;;;;;;;16.98;12.10;;;;;;;19.65;55.79;101770.91;5035017;28;20053;-47
2022/12/29 07:41:57;;;;;;;18.05;13.73;;;;;;;19.66;56.00;101790.56;5035261;28;20041;-47
2022/12/29 07:44:38;;;;;;;16.73;12.68;;;;;;;19.66;55.76;101782.50;5033866;28;20423;-49
2022/12/29 07:47:16;;;;;;;13.88;12.23;;;;;;;19.66;55.85;101786.06;5033780;28;20053;-49
2022/12/29 07:49:43;;;;;;;16.48;13.50;;;;;;;19.66;55.91;101783.38;5034852;28;20041;-49
2022/12/29 07:52:11;;;;;;;16.10;12.88;;;;;;;19.66;55.79;101788.75;5034950;28;20045;-50
2022/12/29 07:54:38;;;;;;;14.23;11.80;;;;;;;19.66;55.80;101783.38;5034787;28;20049;-48
2022/12/29 07:57:06;;;;;;;16.10;12.45;;;;;;;19.66;55.76;101788.75;5034850;28;20464;-49
2022/12/29 07:59:33;;;;;;;14.98;12.43;;;;;;;19.66;55.77;101783.38;5034861;28;20041;-51
2022/12/29 08:02:01;;;;;;;15.25;13.05;;;;;;;19.65;55.83;101781.66;5034826;28;20049;-48
2022/12/29 08:04:28;;;;;;;17.40;13.32;;;;;;;19.66;55.86;101782.50;5034651;28;20738;-50
2022/12/29 08:06:55;;;;;;;15.50;12.60;;;;;;;19.66;55.83;101777.13;5034702;28;20041;-50
2022/12/29 08:09:23;;;;;;;15.57;12.07;;;;;;;19.65;55.88;101781.66;5034723;28;20053;-49
2022/12/29 08:11:51;;;;;;;16.52;12.75;;;;;;;19.65;55.78;101781.66;5034474;28;20056;-49
2022/12/29 08:14:18;;;;;;;15.55;12.60;;;;;;;19.65;55.61;101780.81;5034602;28;20041;-49
2022/12/29 08:16:46;;;;;;;16.48;11.88;;;;;;;19.65;55.66;101783.50;5034592;28;20049;-48
2022/12/29 08:19:13;;;;;;;18.38;13.57;;;;;;;19.64;55.54;101787.13;5034287;28;20379;-49
2022/12/29 08:21:41;;;;;;;16.80;12.98;;;;;;;19.65;55.61;101786.19;5034430;28;20052;-50
2022/12/29 08:24:09;;;;;;;15.52;13.15;;;;;;;19.65;55.71;101778.97;5034311;28;20050;-50
2022/12/29 08:26:36;;;;;;;16.83;12.27;;;;;;;19.65;55.73;101791.53;5034107;28;20057;-51
2022/12/29 08:29:03;;;;;;;17.00;12.68;;;;;;;19.64;55.75;101782.59;5033617;28;20037;-47
2022/12/29 08:31:33;;;;;;;14.95;11.88;;;;;;;19.65;55.67;101775.44;5032781;28;20052;-52
2022/12/29 08:34:02;;;;;;;15.90;12.75;;;;;;;19.65;55.58;101764.69;5033948;28;20049;-50
2022/12/29 08:36:30;;;;;;;18.35;11.93;;;;;;;19.64;55.74;101787.97;5033035;28;20053;-49
2022/12/29 08:38:58;;;;;;;15.35;11.82;;;;;;;19.64;55.56;101790.66;5033955;28;20057;-48
2022/12/29 08:41:25;;;;;;;17.42;13.05;;;;;;;19.64;55.57;101796.03;5034094;28;20064;-48
2022/12/29 08:43:52;;;;;;;16.27;11.82;;;;;;;19.64;55.64;101804.09;5032791;28;20064;-48
2022/12/29 08:46:20;;;;;;;15.18;12.57;;;;;;;19.64;55.50;101800.56;5033639;28;20052;-48
2022/12/29 08:48:47;;;;;;;16.13;12.77;;;;;;;19.64;55.51;101804.09;5033832;28;20492;-52
2022/12/29 08:51:15;;;;;;;13.85;11.77;;;;;;;19.65;55.47;101802.28;5032681;28;20053;-54
2022/12/29 08:53:49;;;;;;;15.40;11.95;;;;;;;19.65;55.41;101807.66;5033928;28;20472;-50
2022/12/29 08:56:16;;;;;;;17.63;12.88;;;;;;;19.65;55.40;101810.34;5033712;28;20046;-48
2022/12/29 08:58:49;;;;;;;16.30;11.93;;;;;;;19.65;55.44;101816.59;5032580;28;20128;-50
2022/12/29 09:01:19;;;;;;;19.30;11.98;;;;;;;19.64;55.47;101814.84;5031971;28;20057;-51
2022/12/29 09:03:47;;;;;;;15.63;12.38;;;;;;;19.64;55.53;101819.34;5033595;28;20061;-52
2022/12/29 09:06:34;;;;;;;20.05;12.80;;;;;;;19.65;55.72;101811.22;5032301;28;20057;-55
2022/12/29 09:09:07;;;;;;;16.23;12.73;;;;;;;19.66;55.52;101815.59;5018722;28;20046;-56
2022/12/29 09:11:34;;;;;;;29.48;20.83;;;;;;;19.62;53.49;101819.47;5024010;28;20327;-57
2022/12/29 09:14:02;;;;;;;39.28;26.02;;;;;;;19.47;53.07;101816.00;5020504;28;20053;-56
2022/12/29 09:16:29;;;;;;;28.95;21.05;;;;;;;19.47;54.08;101820.53;5023134;28;20052;-56
2022/12/29 09:18:57;;;;;;;20.77;15.38;;;;;;;19.49;55.09;101818.63;5012477;28;20049;-54
2022/12/29 09:21:24;;;;;;;19.08;14.45;;;;;;;19.51;55.65;101822.88;5013217;28;20052;-56
2022/12/29 09:23:52;;;;;;;19.50;14.63;;;;;;;19.54;55.57;101832.56;5013429;28;20049;-56
2022/12/29 09:26:19;;;;;;;17.77;13.85;;;;;;;19.56;55.45;101833.28;5027090;28;20419;-52
2022/12/29 09:28:47;;;;;;;20.95;13.90;;;;;;;19.58;55.28;101838.59;5033056;28;20052;-53
2022/12/29 09:31:14;;;;;;;17.73;13.55;;;;;;;19.58;55.29;101834.06;5032779;28;20434;-50
2022/12/29 09:33:41;;;;;;;17.35;13.50;;;;;;;19.60;55.37;101815.13;5033389;28;20049;-54
2022/12/29 09:36:09;;;;;;;18.05;14.05;;;;;;;19.61;55.26;101824.94;5032769;28;20049;-52
2022/12/29 09:38:36;;;;;;;18.95;14.75;;;;;;;19.61;55.03;101831.19;5037088;28;21223;-55
2022/12/29 09:41:26;;;;;;;18.25;14.05;;;;;;;19.61;54.85;101815.09;5044507;28;20049;-56
2022/12/29 09:44:01;;;;;;;19.27;14.93;;;;;;;19.61;54.84;101809.72;5039304;28;20371;-54
2022/12/29 09:46:34;;;;;;;17.83;13.68;;;;;;;19.62;54.98;101824.84;5033871;28;20052;-53
2022/12/29 09:49:16;;;;;;;22.45;16.88;;;;;;;19.62;54.34;101821.31;5046457;28;20597;-55
2022/12/29 09:51:47;;;;;;;19.35;13.98;;;;;;;19.63;55.05;101831.94;5044745;28;20045;-52
2022/12/29 09:54:30;;;;;;;18.27;13.63;;;;;;;19.64;55.03;101830.97;5036213;28;20502;-55
2022/12/29 09:56:57;;;;;;;26.17;18.00;;;;;;;19.64;54.24;101822.03;5024752;28;20064;-53
2022/12/29 09:59:34;;;;;;;32.95;24.77;;;;;;;19.61;52.45;101815.09;5043732;28;20067;-54
2022/12/29 10:02:27;;;;;;;32.58;23.25;;;;;;;19.56;52.21;101819.88;5041815;28;20045;-57
2022/12/29 10:04:54;;;;;;;40.13;29.13;;;;;;;19.26;51.52;101830.97;5027129;28;20387;-53
2022/12/29 10:07:33;;;;;;;44.92;31.95;;;;;;;18.96;51.91;101825.91;5047526;28;20045;-49
2022/12/29 10:10:37;;;;;;;40.05;29.20;;;;;;;18.88;52.92;101820.16;5050432;28;20084;-55
2022/12/29 10:13:23;;;;;;;39.40;26.52;;;;;;;18.95;53.01;101827.69;5029875;28;20052;-50
2022/12/29 10:15:55;;;;;;;43.22;32.80;;;;;;;18.89;51.90;101820.09;5043265;28;20053;-52
2022/12/29 10:18:46;;;;;;;48.20;34.40;;;;;;;18.80;51.80;101822.53;5037902;28;20037;-54
2022/12/29 10:21:47;;;;;;;47.60;33.47;;;;;;;18.69;51.45;101799.94;5032324;28;20051;-50
2022/12/29 10:24:16;;;;;;;43.92;33.00;;;;;;;18.56;51.38;101790.16;5039684;28;20046;-50
2022/12/29 10:26:47;;;;;;;41.03;30.02;;;;;;;18.49;52.13;101795.06;5023486;28;20407;-52
2022/12/29 10:29:28;;;;;;;39.45;30.90;;;;;;;18.47;52.49;101787.13;5047985;28;20060;-54
2022/12/29 10:32:01;;;;;;;39.28;28.58;;;;;;;18.59;52.91;101785.44;5049254;28;20045;-55
2022/12/29 10:34:34;;;;;;;36.67;26.08;;;;;;;18.71;52.92;101787.31;5049077;28;20045;-53
2022/12/29 10:37:30;;;;;;;37.75;26.02;;;;;;;18.83;53.03;101774.88;5040657;28;20048;-55
2022/12/29 10:40:11;;;;;;;37.30;25.42;;;;;;;18.94;52.97;101775.00;5040577;28;20054;-52
2022/12/29 10:42:44;;;;;;;34.95;22.88;;;;;;;19.00;52.88;101776.44;5051194;28;20058;-52
2022/12/29 10:45:16;;;;;;;32.65;22.25;;;;;;;19.07;53.10;101776.84;5042390;28;20048;-53
2022/12/29 10:47:59;;;;;;;31.88;22.88;;;;;;;19.13;52.87;101779.09;5042744;28;20053;-53
2022/12/29 10:50:29;;;;;;;26.73;21.67;;;;;;;19.17;53.06;101773.41;5049797;28;20068;-49
2022/12/29 10:53:01;;;;;;;28.30;21.13;;;;;;;19.20;52.85;101769.63;5040392;28;20418;-55
2022/12/29 10:55:37;;;;;;;29.75;20.92;;;;;;;19.23;52.88;101769.41;5044784;28;20056;-54
2022/12/29 10:58:10;;;;;;;27.35;20.48;;;;;;;19.25;52.97;101754.94;5049680;28;20049;-51
2022/12/29 11:00:37;;;;;;;27.48;20.58;;;;;;;19.27;52.99;101752.13;5038459;28;20487;-53
2022/12/29 11:03:16;;;;;;;25.63;20.10;;;;;;;19.29;52.96;101763.63;5045436;28;20045;-51
2022/12/29 11:05:52;;;;;;;27.73;18.40;;;;;;;19.31;52.95;101761.69;5042940;28;20506;-53
2022/12/29 11:08:25;;;;;;;26.77;19.63;;;;;;;19.32;53.04;101749.97;5050954;28;20052;-54
2022/12/29 11:11:01;;;;;;;24.38;17.58;;;;;;;19.34;52.83;101760.63;5039342;28;20049;-54
2022/12/29 11:13:31;;;;;;;24.77;18.40;;;;;;;19.35;52.80;101756.97;5044522;28;20412;-54
2022/12/29 11:16:05;;;;;;;25.13;18.58;;;;;;;19.35;52.93;101741.69;5049751;28;20491;-52
2022/12/29 11:18:38;;;;;;;24.20;17.02;;;;;;;19.36;52.95;101743.41;5034762;28;20068;-53
2022/12/29 11:21:24;;;;;;;22.20;18.00;;;;;;;19.38;53.07;101751.38;5014971;28;20046;-52
2022/12/29 11:23:58;;;;;;;20.75;15.35;;;;;;;19.37;53.04;101742.47;5040619;28;20060;-51
2022/12/29 11:26:27;;;;;;;19.85;15.60;;;;;;;19.39;52.98;101726.22;5037999;28;20069;-61
2022/12/29 11:29:14;;;;;;;19.80;16.10;;;;;;;19.39;52.92;101723.56;5048086;28;20054;-62
2022/12/29 11:31:48;;;;;;;19.80;15.93;;;;;;;19.39;53.03;101723.56;5045861;28;20059;-62
2022/12/29 11:34:25;;;;;;;19.88;15.45;;;;;;;19.40;52.98;101720.75;5052229;28;20041;-62
2022/12/29 11:37:00;;;;;;;21.77;16.35;;;;;;;19.40;52.86;101718.06;5024217;28;20402;-62
2022/12/29 11:39:32;;;;;;;20.45;15.57;;;;;;;19.40;52.84;101722.56;5043766;28;20049;-62
2022/12/29 11:42:02;;;;;;;20.92;15.90;;;;;;;19.41;53.00;101724.31;5048393;28;20056;-62
2022/12/29 11:44:41;;;;;;;19.48;15.05;;;;;;;19.41;52.94;101722.47;5037683;28;20050;-62
2022/12/29 11:47:23;;;;;;;18.85;14.32;;;;;;;19.40;52.86;101720.75;5046598;28;20053;-62
2022/12/29 11:50:02;;;;;;;18.23;14.32;;;;;;;19.41;52.94;101724.31;5047203;28;20056;-62
2022/12/29 11:52:34;;;;;;;20.15;15.57;;;;;;;19.42;52.86;101723.34;5036769;28;20041;-62
2022/12/29 11:55:07;;;;;;;20.25;14.98;;;;;;;19.42;52.99;101716.13;5047193;28;20114;-62
2022/12/29 11:57:35;;;;;;;21.40;14.60;;;;;;;19.41;53.01;101706.38;5044329;28;20483;-62
2022/12/29 12:00:24;;;;;;;16.75;14.20;;;;;;;19.43;52.81;101709.78;5039837;28;20050;-62
2022/12/29 12:03:07;;;;;;;19.70;15.70;;;;;;;19.43;53.09;101701.72;5023533;28;20049;-62
2022/12/29 12:05:45;;;;;;;17.90;14.40;;;;;;;19.44;53.00;101700.75;5042665;28;20050;-62
2022/12/29 12:08:22;;;;;;;16.98;14.05;;;;;;;19.44;53.00;101694.53;5049433;28;20290;-62
2022/12/29 12:10:58;;;;;;;17.10;13.93;;;;;;;19.45;52.87;101690.91;5023105;28;20045;-62